Hlavní strana
METAR-TAF:

METAR-TAF

Letiště :

Svolvær, Norsko

zeměpisná šířka: 68-15N, zeměpisná délka: 014-40E, výška: 0 m

Aktuální stav počasí

Zpráva byla vytvořena před 1 hodinou a 7 minutami, v 03:50 UTC
Severoseverozápadní vítr 4 kt
Teplota -5°C
Vlhkost vzduchu 73%
Tlak 993 hPa
Viditelnost 10 km a více
Žádná oblačnost pod 1500 m, nevyskytují se cumulonimby.

METAR: ENSH 160350Z 33004KT CAVOK M05/M09 Q0993 RMK WIND 150FT VRB02KT

Čas: 05:57 (04:57 UTC)

Předpověď počasí

Zpráva byla vytvořena před 11 hodinami a 57 minutami, v 17:00 UTC
Předpověď platná od 15 v 18 UTC do 15 v 22 UTC
Severovýchodní vítr 8 kt
Viditelnost 10 km a více
Skoro jasno ve výšce 2000 ft
Pravděpodobnost 40% :
Dočasný
od 15 v 18 UTC do 15 v 22 UTC
Viditelnost: 2000 m
ve výšce 900 ft
sněhové přeháňky

TAF: ENSH 151700Z 1518/1522 04008KT 9999 FEW020 PROB40 TEMPO 1518/1522 2000 SHSN VV009

Stav a předpovědi počasí z více než 4 000 letišť (zprávy METAR a TAF).

Červené a žluté tečky na mapě představují dostupné meteorologické stanice.

Když kurzor umístíte na tečku, zobrazí se název stanice.

Pak kliknutím zobrazíte stav a předpověď počasí.

Chcete-li změnit mapu, kliknutím na zelené tlačítko se znaménkem +mapu přiblížíte, kliknutím na zelené tlačítko se znaménkem – mapu oddálíte a kliknutím na zelené šipky přejdete na sousední mapy.


METAR-TAF: